sensor_id;sensor_type;location;lat;lon;timestamp;pressure;altitude;pressure_sealevel;temperature;humidity
35443;BME280;21561;55.654;37.592;2023-01-16T00:01:49;99515.81;;;-4.84;99.47
35443;BME280;21561;55.654;37.592;2023-01-16T00:04:17;99521.72;;;-4.84;99.54
35443;BME280;21561;55.654;37.592;2023-01-16T00:06:43;99515.06;;;-4.82;99.61
35443;BME280;21561;55.654;37.592;2023-01-16T00:09:10;99511.59;;;-4.84;99.69
35443;BME280;21561;55.654;37.592;2023-01-16T00:11:37;99518.25;;;-4.86;100.00
35443;BME280;21561;55.654;37.592;2023-01-16T00:14:04;99509.06;;;-4.84;99.97
35443;BME280;21561;55.654;37.592;2023-01-16T00:16:31;99512.47;;;-4.83;99.82
35443;BME280;21561;55.654;37.592;2023-01-16T00:18:58;99511.59;;;-4.84;100.00
35443;BME280;21561;55.654;37.592;2023-01-16T00:21:25;99512.47;;;-4.83;99.98
35443;BME280;21561;55.654;37.592;2023-01-16T00:23:56;99499.72;;;-4.85;99.96
35443;BME280;21561;55.654;37.592;2023-01-16T00:26:26;99501.47;;;-4.84;100.00
35443;BME280;21561;55.654;37.592;2023-01-16T00:28:54;99495.63;;;-4.83;100.00
35443;BME280;21561;55.654;37.592;2023-01-16T00:31:21;99492.22;;;-4.83;100.00
35443;BME280;21561;55.654;37.592;2023-01-16T00:33:51;99483.84;;;-4.82;99.79
35443;BME280;21561;55.654;37.592;2023-01-16T00:36:19;99482.09;;;-4.83;99.96
35443;BME280;21561;55.654;37.592;2023-01-16T00:38:46;99482.81;;;-4.86;100.00
35443;BME280;21561;55.654;37.592;2023-01-16T00:41:13;99475.84;;;-4.90;100.00
35443;BME280;21561;55.654;37.592;2023-01-16T00:43:40;99473.47;;;-4.87;100.00
35443;BME280;21561;55.654;37.592;2023-01-16T00:46:07;99471.81;;;-4.86;100.00
35443;BME280;21561;55.654;37.592;2023-01-16T00:48:34;99484.41;;;-4.88;100.00
35443;BME280;21561;55.654;37.592;2023-01-16T00:51:01;99482.97;;;-4.83;100.00
35443;BME280;21561;55.654;37.592;2023-01-16T00:53:28;99477.75;;;-4.86;100.00
35443;BME280;21561;55.654;37.592;2023-01-16T00:55:55;99470.94;;;-4.87;100.00
35443;BME280;21561;55.654;37.592;2023-01-16T00:58:21;99475.31;;;-4.84;100.00
35443;BME280;21561;55.654;37.592;2023-01-16T01:00:49;99461.84;;;-4.83;100.00
35443;BME280;21561;55.654;37.592;2023-01-16T01:03:16;99450.06;;;-4.83;100.00
35443;BME280;21561;55.654;37.592;2023-01-16T01:05:43;99450.00;;;-4.84;100.00
35443;BME280;21561;55.654;37.592;2023-01-16T01:08:10;99454.50;;;-4.78;100.00
35443;BME280;21561;55.654;37.592;2023-01-16T01:10:37;99466.19;;;-4.81;100.00
35443;BME280;21561;55.654;37.592;2023-01-16T01:13:06;99456.94;;;-4.80;100.00
35443;BME280;21561;55.654;37.592;2023-01-16T01:15:33;99466.19;;;-4.81;100.00
35443;BME280;21561;55.654;37.592;2023-01-16T01:18:00;99443.34;;;-4.82;100.00
35443;BME280;21561;55.654;37.592;2023-01-16T01:20:27;99445.94;;;-4.81;100.00
35443;BME280;21561;55.654;37.592;2023-01-16T01:22:54;99445.94;;;-4.81;100.00
35443;BME280;21561;55.654;37.592;2023-01-16T01:25:21;99445.94;;;-4.81;100.00
35443;BME280;21561;55.654;37.592;2023-01-16T01:27:48;99434.22;;;-4.78;100.00
35443;BME280;21561;55.654;37.592;2023-01-16T01:30:16;99428.44;;;-4.76;100.00
35443;BME280;21561;55.654;37.592;2023-01-16T01:32:42;99434.22;;;-4.78;100.00
35443;BME280;21561;55.654;37.592;2023-01-16T01:35:09;99440.97;;;-4.79;100.00
35443;BME280;21561;55.654;37.592;2023-01-16T01:37:36;99431.53;;;-4.82;100.00
35443;BME280;21561;55.654;37.592;2023-01-16T01:40:04;99427.41;;;-4.80;100.00
35443;BME280;21561;55.654;37.592;2023-01-16T01:42:39;99408.19;;;-4.76;100.00
35443;BME280;21561;55.654;37.592;2023-01-16T01:50:42;99407.34;;;-4.76;100.00
35443;BME280;21561;55.654;37.592;2023-01-16T01:53:15;99396.44;;;-4.75;100.00
35443;BME280;21561;55.654;37.592;2023-01-16T01:55:46;99407.41;;;-4.75;100.00
35443;BME280;21561;55.654;37.592;2023-01-16T01:58:17;99388.84;;;-4.75;100.00
35443;BME280;21561;55.654;37.592;2023-01-16T02:00:54;99397.50;;;-4.70;100.00
35443;BME280;21561;55.654;37.592;2023-01-16T02:05:57;99387.53;;;-4.67;100.00
35443;BME280;21561;55.654;37.592;2023-01-16T02:08:29;99390.88;;;-4.68;100.00
35443;BME280;21561;55.654;37.592;2023-01-16T02:11:06;99379.00;;;-4.69;100.00
35443;BME280;21561;55.654;37.592;2023-01-16T02:13:34;99399.09;;;-4.72;100.00
35443;BME280;21561;55.654;37.592;2023-01-16T02:16:03;99384.06;;;-4.69;100.00
35443;BME280;21561;55.654;37.592;2023-01-16T02:18:49;99391.56;;;-4.71;100.00
35443;BME280;21561;55.654;37.592;2023-01-16T02:30:12;99364.81;;;-4.66;100.00
35443;BME280;21561;55.654;37.592;2023-01-16T02:40:52;99358.97;;;-4.65;100.00
35443;BME280;21561;55.654;37.592;2023-01-16T02:43:50;99370.03;;;-4.63;100.00
35443;BME280;21561;55.654;37.592;2023-01-16T02:47:12;99364.09;;;-4.63;100.00
35443;BME280;21561;55.654;37.592;2023-01-16T02:49:42;99363.38;;;-4.61;100.00
35443;BME280;21561;55.654;37.592;2023-01-16T02:54:54;99359.03;;;-4.63;100.00
35443;BME280;21561;55.654;37.592;2023-01-16T02:57:29;99362.22;;;-4.67;100.00
35443;BME280;21561;55.654;37.592;2023-01-16T02:59:59;99351.22;;;-4.68;100.00
35443;BME280;21561;55.654;37.592;2023-01-16T03:02:26;99357.88;;;-4.70;100.00
35443;BME280;21561;55.654;37.592;2023-01-16T03:04:53;99345.28;;;-4.68;100.00
35443;BME280;21561;55.654;37.592;2023-01-16T03:10:38;99339.41;;;-4.67;100.00
35443;BME280;21561;55.654;37.592;2023-01-16T03:13:24;99334.94;;;-4.73;100.00
35443;BME280;21561;55.654;37.592;2023-01-16T03:19:06;99331.81;;;-4.67;100.00
35443;BME280;21561;55.654;37.592;2023-01-16T03:21:52;99335.72;;;-4.74;100.00
35443;BME280;21561;55.654;37.592;2023-01-16T03:24:41;99331.66;;;-4.70;100.00
35443;BME280;21561;55.654;37.592;2023-01-16T03:30:26;99345.22;;;-4.70;100.00
35443;BME280;21561;55.654;37.592;2023-01-16T03:33:05;99350.03;;;-4.74;100.00
35443;BME280;21561;55.654;37.592;2023-01-16T03:35:45;99325.31;;;-4.80;100.00
35443;BME280;21561;55.654;37.592;2023-01-16T03:38:15;99330.22;;;-4.83;100.00
35443;BME280;21561;55.654;37.592;2023-01-16T03:40:46;99331.03;;;-4.84;100.00
35443;BME280;21561;55.654;37.592;2023-01-16T03:43:20;99343.59;;;-4.86;100.00
35443;BME280;21561;55.654;37.592;2023-01-16T03:46:28;99327.47;;;-4.88;100.00
35443;BME280;21561;55.654;37.592;2023-01-16T03:48:55;99329.91;;;-4.89;100.00
35443;BME280;21561;55.654;37.592;2023-01-16T03:51:30;99325.72;;;-4.89;100.00
35443;BME280;21561;55.654;37.592;2023-01-16T03:56:45;99327.31;;;-4.91;100.00
35443;BME280;21561;55.654;37.592;2023-01-16T03:59:14;99314.66;;;-4.91;100.00
35443;BME280;21561;55.654;37.592;2023-01-16T04:01:57;99319.78;;;-4.89;100.00
35443;BME280;21561;55.654;37.592;2023-01-16T04:09:42;99328.16;;;-4.90;100.00
35443;BME280;21561;55.654;37.592;2023-01-16T04:12:13;99322.91;;;-4.95;100.00
35443;BME280;21561;55.654;37.592;2023-01-16T04:14:47;99311.97;;;-4.94;100.00
35443;BME280;21561;55.654;37.592;2023-01-16T04:17:18;99308.41;;;-4.97;100.00
35443;BME280;21561;55.654;37.592;2023-01-16T04:19:45;99316.00;;;-4.97;100.00
35443;BME280;21561;55.654;37.592;2023-01-16T04:22:26;99312.84;;;-4.93;100.00
35443;BME280;21561;55.654;37.592;2023-01-16T04:24:55;99298.53;;;-4.93;100.00
35443;BME280;21561;55.654;37.592;2023-01-16T04:27:22;99297.34;;;-5.00;100.00
35443;BME280;21561;55.654;37.592;2023-01-16T04:29:50;99309.06;;;-5.02;100.00
35443;BME280;21561;55.654;37.592;2023-01-16T04:32:17;99317.59;;;-5.00;100.00
35443;BME280;21561;55.654;37.592;2023-01-16T04:34:43;99320.06;;;-5.01;100.00
35443;BME280;21561;55.654;37.592;2023-01-16T04:37:15;99308.56;;;-4.94;100.00
35443;BME280;21561;55.654;37.592;2023-01-16T04:39:43;99309.22;;;-4.99;100.00
35443;BME280;21561;55.654;37.592;2023-01-16T04:42:10;99311.59;;;-5.02;100.00
35443;BME280;21561;55.654;37.592;2023-01-16T04:44:37;99296.66;;;-4.97;100.00
35443;BME280;21561;55.654;37.592;2023-01-16T04:47:04;99307.47;;;-5.00;100.00
35443;BME280;21561;55.654;37.592;2023-01-16T04:49:31;99300.13;;;-4.95;100.00
35443;BME280;21561;55.654;37.592;2023-01-16T04:51:58;99306.63;;;-5.00;100.00
35443;BME280;21561;55.654;37.592;2023-01-16T04:54:25;99305.75;;;-5.01;100.00
35443;BME280;21561;55.654;37.592;2023-01-16T04:56:52;99298.09;;;-5.02;100.00
35443;BME280;21561;55.654;37.592;2023-01-16T04:59:19;99286.22;;;-5.03;100.00
35443;BME280;21561;55.654;37.592;2023-01-16T05:01:46;99288.75;;;-5.03;100.00
35443;BME280;21561;55.654;37.592;2023-01-16T05:04:14;99298.78;;;-5.05;100.00
35443;BME280;21561;55.654;37.592;2023-01-16T05:06:43;99288.75;;;-5.03;100.00
35443;BME280;21561;55.654;37.592;2023-01-16T05:09:09;99293.72;;;-5.05;100.00
35443;BME280;21561;55.654;37.592;2023-01-16T05:11:36;99292.00;;;-5.06;100.00
35443;BME280;21561;55.654;37.592;2023-01-16T05:14:04;99297.78;;;-5.08;100.00
35443;BME280;21561;55.654;37.592;2023-01-16T05:16:35;99298.72;;;-5.06;100.00
35443;BME280;21561;55.654;37.592;2023-01-16T05:19:02;99296.91;;;-5.09;100.00
35443;BME280;21561;55.654;37.592;2023-01-16T05:21:30;99304.25;;;-5.13;100.00
35443;BME280;21561;55.654;37.592;2023-01-16T05:23:57;99284.09;;;-5.12;100.00
35443;BME280;21561;55.654;37.592;2023-01-16T05:26:24;99287.53;;;-5.11;100.00
35443;BME280;21561;55.654;37.592;2023-01-16T05:28:51;99290.06;;;-5.11;100.00
35443;BME280;21561;55.654;37.592;2023-01-16T05:31:18;99291.69;;;-5.12;100.00
35443;BME280;21561;55.654;37.592;2023-01-16T05:33:45;99289.25;;;-5.10;100.00
35443;BME280;21561;55.654;37.592;2023-01-16T05:36:12;99281.50;;;-5.13;100.00
35443;BME280;21561;55.654;37.592;2023-01-16T05:38:39;99283.91;;;-5.16;100.00
35443;BME280;21561;55.654;37.592;2023-01-16T05:41:06;99290.53;;;-5.19;100.00
35443;BME280;21561;55.654;37.592;2023-01-16T05:43:32;99276.06;;;-5.21;100.00
35443;BME280;21561;55.654;37.592;2023-01-16T05:45:59;99292.81;;;-5.23;100.00
35443;BME280;21561;55.654;37.592;2023-01-16T05:48:26;99285.16;;;-5.25;100.00
35443;BME280;21561;55.654;37.592;2023-01-16T05:50:54;99282.72;;;-5.23;100.00
35443;BME280;21561;55.654;37.592;2023-01-16T05:53:21;99288.63;;;-5.23;100.00
35443;BME280;21561;55.654;37.592;2023-01-16T05:55:48;99290.22;;;-5.25;100.00
35443;BME280;21561;55.654;37.592;2023-01-16T05:58:16;99287.53;;;-5.28;100.00
35443;BME280;21561;55.654;37.592;2023-01-16T06:00:43;99296.63;;;-5.31;100.00
35443;BME280;21561;55.654;37.592;2023-01-16T06:03:10;99298.44;;;-5.29;100.00
35443;BME280;21561;55.654;37.592;2023-01-16T06:05:36;99281.69;;;-5.27;100.00
35443;BME280;21561;55.654;37.592;2023-01-16T06:08:04;99281.53;;;-5.30;100.00
35443;BME280;21561;55.654;37.592;2023-01-16T06:10:31;99285.56;;;-5.33;100.00
35443;BME280;21561;55.654;37.592;2023-01-16T06:13:00;99295.94;;;-5.29;100.00
35443;BME280;21561;55.654;37.592;2023-01-16T06:15:28;99291.66;;;-5.30;100.00
35443;BME280;21561;55.654;37.592;2023-01-16T06:17:54;99303.50;;;-5.29;100.00
35443;BME280;21561;55.654;37.592;2023-01-16T06:20:22;99285.56;;;-5.33;100.00
35443;BME280;21561;55.654;37.592;2023-01-16T06:22:49;99288.19;;;-5.32;100.00
35443;BME280;21561;55.654;37.592;2023-01-16T06:25:16;99278.06;;;-5.32;100.00
35443;BME280;21561;55.654;37.592;2023-01-16T06:27:47;99285.66;;;-5.32;100.00
35443;BME280;21561;55.654;37.592;2023-01-16T06:30:14;99283.59;;;-5.39;100.00
35443;BME280;21561;55.654;37.592;2023-01-16T06:32:41;99282.66;;;-5.41;100.00
35443;BME280;21561;55.654;37.592;2023-01-16T06:35:08;99288.75;;;-5.38;100.00
35443;BME280;21561;55.654;37.592;2023-01-16T06:37:35;99283.13;;;-5.32;100.00
35443;BME280;21561;55.654;37.592;2023-01-16T06:40:02;99300.66;;;-5.35;100.00
35443;BME280;21561;55.654;37.592;2023-01-16T06:42:29;99299.72;;;-5.37;100.00
35443;BME280;21561;55.654;37.592;2023-01-16T06:44:56;99298.13;;;-5.35;100.00
35443;BME280;21561;55.654;37.592;2023-01-16T06:47:22;99291.34;;;-5.36;100.00
35443;BME280;21561;55.654;37.592;2023-01-16T06:49:49;99292.13;;;-5.37;100.00
35443;BME280;21561;55.654;37.592;2023-01-16T06:52:16;99294.38;;;-5.43;100.00
35443;BME280;21561;55.654;37.592;2023-01-16T06:54:42;99307.78;;;-5.44;100.00
35443;BME280;21561;55.654;37.592;2023-01-16T06:57:09;99278.28;;;-5.44;100.00
35443;BME280;21561;55.654;37.592;2023-01-16T06:59:36;99296.66;;;-5.48;100.00
35443;BME280;21561;55.654;37.592;2023-01-16T07:02:03;99308.50;;;-5.47;100.00
35443;BME280;21561;55.654;37.592;2023-01-16T07:04:30;99297.50;;;-5.47;100.00
35443;BME280;21561;55.654;37.592;2023-01-16T07:06:57;99295.94;;;-5.45;100.00
35443;BME280;21561;55.654;37.592;2023-01-16T07:09:23;99308.44;;;-5.48;100.00
35443;BME280;21561;55.654;37.592;2023-01-16T07:11:56;99305.91;;;-5.48;100.00
35443;BME280;21561;55.654;37.592;2023-01-16T07:14:23;99304.16;;;-5.49;100.00
35443;BME280;21561;55.654;37.592;2023-01-16T07:17:12;99294.28;;;-5.45;100.00
35443;BME280;21561;55.654;37.592;2023-01-16T07:19:57;99299.41;;;-5.43;100.00
35443;BME280;21561;55.654;37.592;2023-01-16T07:22:43;99322.94;;;-5.44;99.68
35443;BME280;21561;55.654;37.592;2023-01-16T07:25:15;99310.22;;;-5.46;99.71
35443;BME280;21561;55.654;37.592;2023-01-16T07:27:46;99316.97;;;-5.46;100.00
35443;BME280;21561;55.654;37.592;2023-01-16T07:30:18;99305.25;;;-5.44;99.91
35443;BME280;21561;55.654;37.592;2023-01-16T07:32:46;99315.28;;;-5.46;99.89
35443;BME280;21561;55.654;37.592;2023-01-16T07:35:13;99316.00;;;-5.48;100.00
35443;BME280;21561;55.654;37.592;2023-01-16T07:37:40;99295.78;;;-5.48;100.00
35443;BME280;21561;55.654;37.592;2023-01-16T07:40:09;99313.69;;;-5.44;99.88
35443;BME280;21561;55.654;37.592;2023-01-16T07:42:36;99339.72;;;-5.46;99.80
35443;BME280;21561;55.654;37.592;2023-01-16T07:45:04;99305.91;;;-5.48;99.87
35443;BME280;21561;55.654;37.592;2023-01-16T07:47:33;99310.97;;;-5.48;99.96
35443;BME280;21561;55.654;37.592;2023-01-16T07:50:00;99309.06;;;-5.52;100.00
35443;BME280;21561;55.654;37.592;2023-01-16T07:52:29;99310.63;;;-5.54;100.00
35443;BME280;21561;55.654;37.592;2023-01-16T07:54:56;99308.19;;;-5.53;99.81
35443;BME280;21561;55.654;37.592;2023-01-16T07:57:22;99314.25;;;-5.49;100.00
35443;BME280;21561;55.654;37.592;2023-01-16T07:59:51;99308.50;;;-5.47;100.00
35443;BME280;21561;55.654;37.592;2023-01-16T08:02:18;99305.97;;;-5.47;99.75
35443;BME280;21561;55.654;37.592;2023-01-16T08:04:45;99312.69;;;-5.47;99.76
35443;BME280;21561;55.654;37.592;2023-01-16T08:07:12;99308.50;;;-5.47;99.66
35443;BME280;21561;55.654;37.592;2023-01-16T08:09:39;99314.34;;;-5.48;99.54
35443;BME280;21561;55.654;37.592;2023-01-16T08:12:05;99302.56;;;-5.47;99.54
35443;BME280;21561;55.654;37.592;2023-01-16T08:14:32;99297.38;;;-5.50;99.42
35443;BME280;21561;55.654;37.592;2023-01-16T08:16:59;99303.84;;;-5.56;99.87
35443;BME280;21561;55.654;37.592;2023-01-16T08:19:26;99296.25;;;-5.56;99.89
35443;BME280;21561;55.654;37.592;2023-01-16T08:21:53;99317.59;;;-5.50;99.83
35443;BME280;21561;55.654;37.592;2023-01-16T08:24:19;99305.72;;;-5.51;99.58
35443;BME280;21561;55.654;37.592;2023-01-16T08:26:46;99301.97;;;-5.60;100.00
35443;BME280;21561;55.654;37.592;2023-01-16T08:29:13;99303.84;;;-5.56;100.00
35443;BME280;21561;55.654;37.592;2023-01-16T08:31:40;99297.03;;;-5.57;100.00
35443;BME280;21561;55.654;37.592;2023-01-16T08:34:07;99298.78;;;-5.56;100.00
35443;BME280;21561;55.654;37.592;2023-01-16T08:36:33;99296.44;;;-5.52;100.00
35443;BME280;21561;55.654;37.592;2023-01-16T08:39:01;99309.13;;;-5.51;100.00
35443;BME280;21561;55.654;37.592;2023-01-16T08:41:28;99300.69;;;-5.51;100.00
35443;BME280;21561;55.654;37.592;2023-01-16T08:44:15;99285.66;;;-5.48;100.00
35443;BME280;21561;55.654;37.592;2023-01-16T08:47:04;99299.09;;;-5.49;100.00
35443;BME280;21561;55.654;37.592;2023-01-16T08:49:50;99287.09;;;-5.53;100.00
35443;BME280;21561;55.654;37.592;2023-01-16T08:52:36;99291.50;;;-5.49;100.00
35443;BME280;21561;55.654;37.592;2023-01-16T08:55:04;99294.03;;;-5.49;100.00
35443;BME280;21561;55.654;37.592;2023-01-16T08:57:31;99288.13;;;-5.50;100.00
35443;BME280;21561;55.654;37.592;2023-01-16T08:59:58;99287.25;;;-5.50;100.00
35443;BME280;21561;55.654;37.592;2023-01-16T09:02:26;99292.41;;;-5.49;100.00
35443;BME280;21561;55.654;37.592;2023-01-16T09:04:54;99283.16;;;-5.48;100.00
35443;BME280;21561;55.654;37.592;2023-01-16T09:07:21;99280.44;;;-5.51;100.00
35443;BME280;21561;55.654;37.592;2023-01-16T09:09:49;99284.56;;;-5.53;100.00
35443;BME280;21561;55.654;37.592;2023-01-16T09:12:16;99279.44;;;-5.55;100.00
35443;BME280;21561;55.654;37.592;2023-01-16T09:15:01;99284.47;;;-5.55;100.00
35443;BME280;21561;55.654;37.592;2023-01-16T09:17:29;99300.38;;;-5.58;100.00
35443;BME280;21561;55.654;37.592;2023-01-16T09:19:56;99278.72;;;-5.52;100.00
35443;BME280;21561;55.654;37.592;2023-01-16T09:22:23;99288.84;;;-5.52;100.00
35443;BME280;21561;55.654;37.592;2023-01-16T09:24:52;99282.97;;;-5.51;100.00
35443;BME280;21561;55.654;37.592;2023-01-16T09:27:19;99277.16;;;-5.50;100.00
35443;BME280;21561;55.654;37.592;2023-01-16T09:29:46;99264.59;;;-5.49;100.00
35443;BME280;21561;55.654;37.592;2023-01-16T09:32:12;99268.91;;;-5.46;100.00
35443;BME280;21561;55.654;37.592;2023-01-16T09:34:39;99272.38;;;-5.44;100.00
35443;BME280;21561;55.654;37.592;2023-01-16T09:37:08;99273.56;;;-5.38;100.00
35443;BME280;21561;55.654;37.592;2023-01-16T09:39:35;99261.00;;;-5.36;100.00
35443;BME280;21561;55.654;37.592;2023-01-16T09:45:03;99249.59;;;-5.28;100.00
35443;BME280;21561;55.654;37.592;2023-01-16T09:47:32;99242.00;;;-5.28;100.00
35443;BME280;21561;55.654;37.592;2023-01-16T09:50:06;99251.34;;;-5.27;100.00
35443;BME280;21561;55.654;37.592;2023-01-16T09:52:39;99250.41;;;-5.29;100.00
35443;BME280;21561;55.654;37.592;2023-01-16T09:55:39;99227.91;;;-5.23;100.00
35443;BME280;21561;55.654;37.592;2023-01-16T09:58:27;99237.91;;;-5.26;100.00
35443;BME280;21561;55.654;37.592;2023-01-16T10:01:22;99241.38;;;-5.24;100.00
35443;BME280;21561;55.654;37.592;2023-01-16T10:03:56;99225.25;;;-5.26;100.00
35443;BME280;21561;55.654;37.592;2023-01-16T10:06:36;99228.72;;;-5.24;100.00
35443;BME280;21561;55.654;37.592;2023-01-16T10:12:05;99229.16;;;-5.14;100.00
35443;BME280;21561;55.654;37.592;2023-01-16T10:21:07;99215.94;;;-5.09;100.00
35443;BME280;21561;55.654;37.592;2023-01-16T10:26:12;99224.22;;;-4.95;100.00
35443;BME280;21561;55.654;37.592;2023-01-16T10:29:23;99194.84;;;-4.91;100.00
35443;BME280;21561;55.654;37.592;2023-01-16T10:37:22;99207.00;;;-4.84;100.00
35443;BME280;21561;55.654;37.592;2023-01-16T10:39:50;99197.88;;;-4.81;100.00
35443;BME280;21561;55.654;37.592;2023-01-16T10:42:28;99193.84;;;-4.77;100.00
35443;BME280;21561;55.654;37.592;2023-01-16T10:45:19;99196.44;;;-4.75;100.00
35443;BME280;21561;55.654;37.592;2023-01-16T10:48:10;99187.38;;;-4.70;100.00
35443;BME280;21561;55.654;37.592;2023-01-16T10:50:57;99196.72;;;-4.69;100.00
35443;BME280;21561;55.654;37.592;2023-01-16T10:53:25;99210.31;;;-4.67;100.00
35443;BME280;21561;55.654;37.592;2023-01-16T10:55:53;99198.72;;;-4.62;100.00
35443;BME280;21561;55.654;37.592;2023-01-16T10:58:25;99193.06;;;-4.56;100.00
35443;BME280;21561;55.654;37.592;2023-01-16T11:00:58;99184.69;;;-4.55;100.00
35443;BME280;21561;55.654;37.592;2023-01-16T11:03:34;99180.47;;;-4.55;100.00
35443;BME280;21561;55.654;37.592;2023-01-16T11:06:11;99193.41;;;-4.49;100.00
35443;BME280;21561;55.654;37.592;2023-01-16T11:08:40;99177.44;;;-4.48;100.00
35443;BME280;21561;55.654;37.592;2023-01-16T11:11:10;99204.34;;;-4.50;100.00
35443;BME280;21561;55.654;37.592;2023-01-16T11:13:58;99193.28;;;-4.52;100.00
35443;BME280;21561;55.654;37.592;2023-01-16T11:16:44;99173.81;;;-4.53;100.00
35443;BME280;21561;55.654;37.592;2023-01-16T11:19:40;99185.81;;;-4.49;100.00
35443;BME280;21561;55.654;37.592;2023-01-16T11:22:25;99182.34;;;-4.51;100.00
35443;BME280;21561;55.654;37.592;2023-01-16T11:24:57;99182.78;;;-4.60;100.00
35443;BME280;21561;55.654;37.592;2023-01-16T11:27:27;99190.19;;;-4.64;100.00
35443;BME280;21561;55.654;37.592;2023-01-16T11:29:56;99200.31;;;-4.64;100.00
35443;BME280;21561;55.654;37.592;2023-01-16T11:32:25;99184.91;;;-4.69;100.00
35443;BME280;21561;55.654;37.592;2023-01-16T11:34:56;99189.19;;;-4.68;100.00
35443;BME280;21561;55.654;37.592;2023-01-16T11:37:27;99191.78;;;-4.66;100.00
35443;BME280;21561;55.654;37.592;2023-01-16T11:39:59;99204.31;;;-4.69;100.00
35443;BME280;21561;55.654;37.592;2023-01-16T11:42:29;99188.97;;;-4.72;100.00
35443;BME280;21561;55.654;37.592;2023-01-16T11:45:18;99195.84;;;-4.70;100.00
35443;BME280;21561;55.654;37.592;2023-01-16T11:48:08;99200.03;;;-4.70;100.00
35443;BME280;21561;55.654;37.592;2023-01-16T11:50:55;99203.94;;;-4.77;100.00
35443;BME280;21561;55.654;37.592;2023-01-16T11:53:22;99191.63;;;-4.69;100.00
35443;BME280;21561;55.654;37.592;2023-01-16T12:05:10;99199.59;;;-4.80;100.00
35443;BME280;21561;55.654;37.592;2023-01-16T12:22:13;99207.44;;;-4.93;100.00
35443;BME280;21561;55.654;37.592;2023-01-16T12:24:53;99220.88;;;-4.94;100.00
35443;BME280;21561;55.654;37.592;2023-01-16T12:27:42;99211.41;;;-4.98;100.00
35443;BME280;21561;55.654;37.592;2023-01-16T12:38:17;99209.28;;;-5.07;100.00
35443;BME280;21561;55.654;37.592;2023-01-16T12:46:00;99203.38;;;-5.07;100.00
35443;BME280;21561;55.654;37.592;2023-01-16T12:52:24;99209.88;;;-5.12;100.00
35443;BME280;21561;55.654;37.592;2023-01-16T12:55:04;99192.09;;;-5.14;100.00
35443;BME280;21561;55.654;37.592;2023-01-16T13:00:23;99216.81;;;-5.08;100.00
35443;BME280;21561;55.654;37.592;2023-01-16T13:05:33;99203.06;;;-5.13;100.00
35443;BME280;21561;55.654;37.592;2023-01-16T13:08:03;99208.78;;;-5.18;100.00
35443;BME280;21561;55.654;37.592;2023-01-16T13:10:38;99195.28;;;-5.18;100.00
35443;BME280;21561;55.654;37.592;2023-01-16T13:13:32;99201.84;;;-5.22;100.00
35443;BME280;21561;55.654;37.592;2023-01-16T13:16:22;99197.88;;;-5.16;100.00
35443;BME280;21561;55.654;37.592;2023-01-16T13:19:00;99208.94;;;-5.14;100.00
35443;BME280;21561;55.654;37.592;2023-01-16T13:21:39;99204.81;;;-5.12;100.00
35443;BME280;21561;55.654;37.592;2023-01-16T13:24:14;99210.03;;;-5.09;100.00
35443;BME280;21561;55.654;37.592;2023-01-16T13:26:45;99210.88;;;-5.09;100.00
35443;BME280;21561;55.654;37.592;2023-01-16T13:29:23;99199.41;;;-5.02;100.00
35443;BME280;21561;55.654;37.592;2023-01-16T13:32:22;99209.66;;;-4.99;100.00
35443;BME280;21561;55.654;37.592;2023-01-16T13:34:58;99223.91;;;-5.01;100.00
35443;BME280;21561;55.654;37.592;2023-01-16T13:37:39;99205.41;;;-5.00;100.00
35443;BME280;21561;55.654;37.592;2023-01-16T13:43:02;99197.88;;;-4.99;100.00
35443;BME280;21561;55.654;37.592;2023-01-16T13:45:52;99208.88;;;-4.98;100.00
35443;BME280;21561;55.654;37.592;2023-01-16T13:48:27;99214.88;;;-4.96;100.00
35443;BME280;21561;55.654;37.592;2023-01-16T13:51:00;99208.88;;;-4.98;100.00
35443;BME280;21561;55.654;37.592;2023-01-16T13:53:29;99219.00;;;-4.98;100.00
35443;BME280;21561;55.654;37.592;2023-01-16T13:56:13;99217.56;;;-4.93;100.00
35443;BME280;21561;55.654;37.592;2023-01-16T13:58:58;99215.03;;;-4.93;100.00
35443;BME280;21561;55.654;37.592;2023-01-16T14:01:52;99220.00;;;-4.94;100.00
35443;BME280;21561;55.654;37.592;2023-01-16T14:06:54;99215.69;;;-4.97;100.00
35443;BME280;21561;55.654;37.592;2023-01-16T14:15:55;99217.41;;;-4.96;100.00
35443;BME280;21561;55.654;37.592;2023-01-16T14:21:19;99222.31;;;-4.99;100.00
35443;BME280;21561;55.654;37.592;2023-01-16T14:23:53;99214.34;;;-5.07;100.00
35443;BME280;21561;55.654;37.592;2023-01-16T14:29:20;99208.34;;;-5.09;100.00
35443;BME280;21561;55.654;37.592;2023-01-16T14:32:00;99203.22;;;-5.10;100.00
35443;BME280;21561;55.654;37.592;2023-01-16T14:34:40;99198.25;;;-5.09;100.00
35443;BME280;21561;55.654;37.592;2023-01-16T14:37:17;99205.75;;;-5.10;100.00
35443;BME280;21561;55.654;37.592;2023-01-16T14:39:51;99216.69;;;-5.11;100.00
35443;BME280;21561;55.654;37.592;2023-01-16T14:42:33;99221.16;;;-5.06;100.00
35443;BME280;21561;55.654;37.592;2023-01-16T14:45:31;99210.97;;;-5.07;100.00
35443;BME280;21561;55.654;37.592;2023-01-16T14:59:30;99219.22;;;-5.11;100.00
35443;BME280;21561;55.654;37.592;2023-01-16T15:02:21;99216.97;;;-5.05;100.00
35443;BME280;21561;55.654;37.592;2023-01-16T15:05:05;99210.97;;;-5.07;100.00
35443;BME280;21561;55.654;37.592;2023-01-16T15:07:50;99209.13;;;-5.10;100.00
35443;BME280;21561;55.654;37.592;2023-01-16T15:10:22;99210.72;;;-5.12;100.00
35443;BME280;21561;55.654;37.592;2023-01-16T15:12:50;99205.75;;;-5.10;100.00
35443;BME280;21561;55.654;37.592;2023-01-16T15:15:27;99211.13;;;-5.04;100.00
35443;BME280;21561;55.654;37.592;2023-01-16T15:17:57;99211.75;;;-5.08;100.00
35443;BME280;21561;55.654;37.592;2023-01-16T15:20:44;99214.34;;;-5.07;100.00
35443;BME280;21561;55.654;37.592;2023-01-16T15:23:35;99220.44;;;-5.03;100.00
35443;BME280;21561;55.654;37.592;2023-01-16T15:31:32;99205.09;;;-5.06;100.00
35443;BME280;21561;55.654;37.592;2023-01-16T15:36:44;99208.44;;;-5.07;100.00